sensor_id;sensor_type;location;lat;lon;timestamp;P1;durP1;ratioP1;P2;durP2;ratioP2
12052;SDS011;6087;48.982;12.064;2023-02-11T00:00:37;38.13;;;23.70;;
12052;SDS011;6087;48.982;12.064;2023-02-11T00:03:05;44.57;;;25.47;;
12052;SDS011;6087;48.982;12.064;2023-02-11T00:05:35;40.93;;;23.10;;
12052;SDS011;6087;48.982;12.064;2023-02-11T00:08:02;46.33;;;26.23;;
12052;SDS011;6087;48.982;12.064;2023-02-11T00:10:29;48.57;;;26.43;;
12052;SDS011;6087;48.982;12.064;2023-02-11T00:12:56;38.07;;;22.90;;
12052;SDS011;6087;48.982;12.064;2023-02-11T00:15:24;44.97;;;23.70;;
12052;SDS011;6087;48.982;12.064;2023-02-11T00:17:51;41.03;;;24.17;;
12052;SDS011;6087;48.982;12.064;2023-02-11T00:20:18;43.53;;;24.73;;
12052;SDS011;6087;48.982;12.064;2023-02-11T00:22:45;42.40;;;24.27;;
12052;SDS011;6087;48.982;12.064;2023-02-11T00:25:12;40.70;;;24.30;;
12052;SDS011;6087;48.982;12.064;2023-02-11T00:27:38;38.97;;;23.87;;
12052;SDS011;6087;48.982;12.064;2023-02-11T00:30:06;45.57;;;25.37;;
12052;SDS011;6087;48.982;12.064;2023-02-11T00:32:35;43.27;;;23.57;;
12052;SDS011;6087;48.982;12.064;2023-02-11T00:35:02;42.43;;;25.17;;
12052;SDS011;6087;48.982;12.064;2023-02-11T00:37:29;42.83;;;25.40;;
12052;SDS011;6087;48.982;12.064;2023-02-11T00:40:00;45.17;;;26.30;;
12052;SDS011;6087;48.982;12.064;2023-02-11T00:42:27;48.07;;;24.87;;
12052;SDS011;6087;48.982;12.064;2023-02-11T00:44:54;43.00;;;24.40;;
12052;SDS011;6087;48.982;12.064;2023-02-11T00:47:21;42.47;;;25.00;;
12052;SDS011;6087;48.982;12.064;2023-02-11T00:49:49;39.53;;;24.57;;
12052;SDS011;6087;48.982;12.064;2023-02-11T00:52:16;38.47;;;23.60;;
12052;SDS011;6087;48.982;12.064;2023-02-11T00:54:43;42.13;;;24.23;;
12052;SDS011;6087;48.982;12.064;2023-02-11T00:57:10;45.00;;;24.17;;
12052;SDS011;6087;48.982;12.064;2023-02-11T00:59:37;40.17;;;24.03;;
12052;SDS011;6087;48.982;12.064;2023-02-11T01:02:04;44.50;;;24.90;;
12052;SDS011;6087;48.982;12.064;2023-02-11T01:04:31;42.73;;;23.13;;
12052;SDS011;6087;48.982;12.064;2023-02-11T01:07:02;39.00;;;24.80;;
12052;SDS011;6087;48.982;12.064;2023-02-11T01:09:29;38.57;;;23.67;;
12052;SDS011;6087;48.982;12.064;2023-02-11T01:11:56;39.33;;;23.23;;
12052;SDS011;6087;48.982;12.064;2023-02-11T01:14:23;36.80;;;22.93;;
12052;SDS011;6087;48.982;12.064;2023-02-11T01:16:50;45.67;;;24.60;;
12052;SDS011;6087;48.982;12.064;2023-02-11T01:19:17;42.97;;;25.20;;
12052;SDS011;6087;48.982;12.064;2023-02-11T01:21:44;42.43;;;23.87;;
12052;SDS011;6087;48.982;12.064;2023-02-11T01:24:12;43.83;;;24.27;;
12052;SDS011;6087;48.982;12.064;2023-02-11T01:26:39;39.00;;;22.50;;
12052;SDS011;6087;48.982;12.064;2023-02-11T01:29:06;41.00;;;22.93;;
12052;SDS011;6087;48.982;12.064;2023-02-11T01:31:34;45.37;;;23.80;;
12052;SDS011;6087;48.982;12.064;2023-02-11T01:34:01;40.13;;;23.20;;
12052;SDS011;6087;48.982;12.064;2023-02-11T01:36:28;42.43;;;23.57;;
12052;SDS011;6087;48.982;12.064;2023-02-11T01:38:55;38.60;;;24.10;;
12052;SDS011;6087;48.982;12.064;2023-02-11T01:41:23;43.17;;;23.57;;
12052;SDS011;6087;48.982;12.064;2023-02-11T01:43:50;38.60;;;24.33;;
12052;SDS011;6087;48.982;12.064;2023-02-11T01:49:05;46.07;;;23.93;;
12052;SDS011;6087;48.982;12.064;2023-02-11T01:51:35;43.73;;;24.50;;
12052;SDS011;6087;48.982;12.064;2023-02-11T01:54:06;43.57;;;24.57;;
12052;SDS011;6087;48.982;12.064;2023-02-11T01:56:54;41.17;;;22.20;;
12052;SDS011;6087;48.982;12.064;2023-02-11T01:59:42;35.93;;;23.00;;
12052;SDS011;6087;48.982;12.064;2023-02-11T02:02:12;38.53;;;22.67;;
12052;SDS011;6087;48.982;12.064;2023-02-11T02:04:43;38.87;;;23.43;;
12052;SDS011;6087;48.982;12.064;2023-02-11T02:07:19;40.97;;;24.57;;
12052;SDS011;6087;48.982;12.064;2023-02-11T02:09:59;47.10;;;25.50;;
12052;SDS011;6087;48.982;12.064;2023-02-11T02:12:34;40.67;;;21.57;;
12052;SDS011;6087;48.982;12.064;2023-02-11T02:15:19;37.90;;;23.33;;
12052;SDS011;6087;48.982;12.064;2023-02-11T02:17:59;44.50;;;22.47;;
12052;SDS011;6087;48.982;12.064;2023-02-11T02:20:51;37.00;;;22.73;;
12052;SDS011;6087;48.982;12.064;2023-02-11T02:23:54;39.20;;;22.43;;
12052;SDS011;6087;48.982;12.064;2023-02-11T02:26:46;38.77;;;21.97;;
12052;SDS011;6087;48.982;12.064;2023-02-11T02:35:23;38.60;;;20.77;;
12052;SDS011;6087;48.982;12.064;2023-02-11T02:37:56;40.93;;;22.90;;
12052;SDS011;6087;48.982;12.064;2023-02-11T02:40:28;43.90;;;24.60;;
12052;SDS011;6087;48.982;12.064;2023-02-11T02:42:58;40.37;;;23.00;;
12052;SDS011;6087;48.982;12.064;2023-02-11T02:45:27;43.00;;;24.50;;
12052;SDS011;6087;48.982;12.064;2023-02-11T02:47:55;48.30;;;24.43;;
12052;SDS011;6087;48.982;12.064;2023-02-11T02:50:25;47.67;;;25.00;;
12052;SDS011;6087;48.982;12.064;2023-02-11T02:52:59;47.30;;;24.40;;
12052;SDS011;6087;48.982;12.064;2023-02-11T02:55:44;40.30;;;23.43;;
12052;SDS011;6087;48.982;12.064;2023-02-11T02:58:29;41.23;;;23.03;;
12052;SDS011;6087;48.982;12.064;2023-02-11T03:01:19;41.13;;;24.80;;
12052;SDS011;6087;48.982;12.064;2023-02-11T03:03:56;42.47;;;24.27;;
12052;SDS011;6087;48.982;12.064;2023-02-11T03:06:32;39.03;;;23.00;;
12052;SDS011;6087;48.982;12.064;2023-02-11T03:09:05;41.80;;;23.93;;
12052;SDS011;6087;48.982;12.064;2023-02-11T03:11:36;43.50;;;24.40;;
12052;SDS011;6087;48.982;12.064;2023-02-11T03:14:04;44.30;;;24.50;;
12052;SDS011;6087;48.982;12.064;2023-02-11T03:16:33;43.43;;;24.77;;
12052;SDS011;6087;48.982;12.064;2023-02-11T03:19:06;43.07;;;24.67;;
12052;SDS011;6087;48.982;12.064;2023-02-11T03:21:37;40.13;;;22.33;;
12052;SDS011;6087;48.982;12.064;2023-02-11T03:24:06;45.03;;;24.83;;
12052;SDS011;6087;48.982;12.064;2023-02-11T03:26:37;44.27;;;25.13;;
12052;SDS011;6087;48.982;12.064;2023-02-11T03:29:09;42.53;;;23.40;;
12052;SDS011;6087;48.982;12.064;2023-02-11T03:31:43;43.33;;;25.27;;
12052;SDS011;6087;48.982;12.064;2023-02-11T03:34:24;42.03;;;23.53;;
12052;SDS011;6087;48.982;12.064;2023-02-11T03:36:59;40.63;;;23.37;;
12052;SDS011;6087;48.982;12.064;2023-02-11T03:39:31;39.30;;;23.40;;
12052;SDS011;6087;48.982;12.064;2023-02-11T03:42:02;44.60;;;23.47;;
12052;SDS011;6087;48.982;12.064;2023-02-11T03:44:36;41.60;;;23.57;;
12052;SDS011;6087;48.982;12.064;2023-02-11T03:47:07;43.17;;;23.37;;
12052;SDS011;6087;48.982;12.064;2023-02-11T03:49:39;41.77;;;23.67;;
12052;SDS011;6087;48.982;12.064;2023-02-11T03:52:08;38.37;;;23.63;;
12052;SDS011;6087;48.982;12.064;2023-02-11T03:54:37;38.60;;;21.30;;
12052;SDS011;6087;48.982;12.064;2023-02-11T03:57:09;42.10;;;23.90;;
12052;SDS011;6087;48.982;12.064;2023-02-11T03:59:48;41.03;;;23.77;;
12052;SDS011;6087;48.982;12.064;2023-02-11T04:02:16;42.27;;;24.03;;
12052;SDS011;6087;48.982;12.064;2023-02-11T04:04:46;42.73;;;25.40;;
12052;SDS011;6087;48.982;12.064;2023-02-11T04:07:12;46.33;;;24.57;;
12052;SDS011;6087;48.982;12.064;2023-02-11T04:09:39;46.40;;;25.83;;
12052;SDS011;6087;48.982;12.064;2023-02-11T04:12:06;44.13;;;24.73;;
12052;SDS011;6087;48.982;12.064;2023-02-11T04:14:33;42.07;;;24.00;;
12052;SDS011;6087;48.982;12.064;2023-02-11T04:17:01;39.73;;;23.23;;
12052;SDS011;6087;48.982;12.064;2023-02-11T04:19:28;41.20;;;23.73;;
12052;SDS011;6087;48.982;12.064;2023-02-11T04:21:57;44.17;;;24.87;;
12052;SDS011;6087;48.982;12.064;2023-02-11T04:24:24;40.20;;;23.43;;
12052;SDS011;6087;48.982;12.064;2023-02-11T04:26:50;43.73;;;23.47;;
12052;SDS011;6087;48.982;12.064;2023-02-11T04:29:17;45.87;;;24.17;;
12052;SDS011;6087;48.982;12.064;2023-02-11T04:31:44;48.33;;;24.73;;
12052;SDS011;6087;48.982;12.064;2023-02-11T04:34:12;40.07;;;23.43;;
12052;SDS011;6087;48.982;12.064;2023-02-11T04:36:39;40.80;;;23.97;;
12052;SDS011;6087;48.982;12.064;2023-02-11T04:39:08;44.87;;;24.50;;
12052;SDS011;6087;48.982;12.064;2023-02-11T04:41:35;42.47;;;24.93;;
12052;SDS011;6087;48.982;12.064;2023-02-11T04:44:02;41.33;;;22.73;;
12052;SDS011;6087;48.982;12.064;2023-02-11T04:46:29;44.10;;;24.00;;
12052;SDS011;6087;48.982;12.064;2023-02-11T04:48:56;45.63;;;23.50;;
12052;SDS011;6087;48.982;12.064;2023-02-11T04:51:23;42.20;;;23.40;;
12052;SDS011;6087;48.982;12.064;2023-02-11T04:53:50;38.47;;;22.60;;
12052;SDS011;6087;48.982;12.064;2023-02-11T04:56:18;41.37;;;23.13;;
12052;SDS011;6087;48.982;12.064;2023-02-11T04:58:45;42.90;;;23.40;;
12052;SDS011;6087;48.982;12.064;2023-02-11T05:01:13;37.67;;;23.00;;
12052;SDS011;6087;48.982;12.064;2023-02-11T05:03:41;40.17;;;24.23;;
12052;SDS011;6087;48.982;12.064;2023-02-11T05:06:08;40.83;;;22.87;;
12052;SDS011;6087;48.982;12.064;2023-02-11T05:08:36;40.83;;;22.37;;
12052;SDS011;6087;48.982;12.064;2023-02-11T05:11:03;41.23;;;23.50;;
12052;SDS011;6087;48.982;12.064;2023-02-11T05:13:32;46.40;;;25.67;;
12052;SDS011;6087;48.982;12.064;2023-02-11T05:15:59;44.93;;;22.53;;
12052;SDS011;6087;48.982;12.064;2023-02-11T05:18:26;42.30;;;24.60;;
12052;SDS011;6087;48.982;12.064;2023-02-11T05:20:53;42.07;;;22.97;;
12052;SDS011;6087;48.982;12.064;2023-02-11T05:23:20;40.13;;;22.87;;
12052;SDS011;6087;48.982;12.064;2023-02-11T05:25:47;42.07;;;22.77;;
12052;SDS011;6087;48.982;12.064;2023-02-11T05:28:13;41.27;;;25.17;;
12052;SDS011;6087;48.982;12.064;2023-02-11T05:30:42;41.60;;;23.63;;
12052;SDS011;6087;48.982;12.064;2023-02-11T05:33:09;39.97;;;24.20;;
12052;SDS011;6087;48.982;12.064;2023-02-11T05:35:36;39.33;;;23.47;;
12052;SDS011;6087;48.982;12.064;2023-02-11T05:38:03;40.53;;;24.60;;
12052;SDS011;6087;48.982;12.064;2023-02-11T05:40:29;42.73;;;24.23;;
12052;SDS011;6087;48.982;12.064;2023-02-11T05:42:56;43.73;;;24.13;;
12052;SDS011;6087;48.982;12.064;2023-02-11T05:45:23;40.33;;;24.17;;
12052;SDS011;6087;48.982;12.064;2023-02-11T05:47:52;44.67;;;24.03;;
12052;SDS011;6087;48.982;12.064;2023-02-11T05:50:19;37.23;;;21.87;;
12052;SDS011;6087;48.982;12.064;2023-02-11T05:52:46;46.50;;;24.67;;
12052;SDS011;6087;48.982;12.064;2023-02-11T05:55:12;37.37;;;23.67;;
12052;SDS011;6087;48.982;12.064;2023-02-11T05:57:39;38.23;;;23.80;;
12052;SDS011;6087;48.982;12.064;2023-02-11T06:00:07;34.90;;;21.67;;
12052;SDS011;6087;48.982;12.064;2023-02-11T06:02:35;41.67;;;23.63;;
12052;SDS011;6087;48.982;12.064;2023-02-11T06:05:03;38.77;;;22.97;;
12052;SDS011;6087;48.982;12.064;2023-02-11T06:07:30;41.23;;;23.07;;
12052;SDS011;6087;48.982;12.064;2023-02-11T06:09:57;43.67;;;25.17;;
12052;SDS011;6087;48.982;12.064;2023-02-11T06:12:25;36.17;;;22.87;;
12052;SDS011;6087;48.982;12.064;2023-02-11T06:14:52;40.80;;;22.57;;
12052;SDS011;6087;48.982;12.064;2023-02-11T06:17:19;38.63;;;22.03;;
12052;SDS011;6087;48.982;12.064;2023-02-11T06:19:47;40.80;;;23.60;;
12052;SDS011;6087;48.982;12.064;2023-02-11T06:22:15;38.57;;;22.20;;
12052;SDS011;6087;48.982;12.064;2023-02-11T06:24:42;37.63;;;22.10;;
12052;SDS011;6087;48.982;12.064;2023-02-11T06:27:09;38.17;;;22.27;;
12052;SDS011;6087;48.982;12.064;2023-02-11T06:29:36;39.67;;;22.53;;
12052;SDS011;6087;48.982;12.064;2023-02-11T06:32:03;38.07;;;22.80;;
12052;SDS011;6087;48.982;12.064;2023-02-11T06:34:30;40.30;;;23.47;;
12052;SDS011;6087;48.982;12.064;2023-02-11T06:36:59;43.67;;;22.43;;
12052;SDS011;6087;48.982;12.064;2023-02-11T06:39:27;41.73;;;25.10;;
12052;SDS011;6087;48.982;12.064;2023-02-11T06:41:54;35.73;;;22.03;;
12052;SDS011;6087;48.982;12.064;2023-02-11T06:44:21;36.70;;;20.90;;
12052;SDS011;6087;48.982;12.064;2023-02-11T06:46:49;33.80;;;18.87;;
12052;SDS011;6087;48.982;12.064;2023-02-11T06:49:15;42.43;;;21.57;;
12052;SDS011;6087;48.982;12.064;2023-02-11T06:51:42;35.13;;;20.67;;
12052;SDS011;6087;48.982;12.064;2023-02-11T06:54:09;41.20;;;23.53;;
12052;SDS011;6087;48.982;12.064;2023-02-11T06:56:39;37.07;;;21.57;;
12052;SDS011;6087;48.982;12.064;2023-02-11T06:59:11;36.80;;;21.83;;
12052;SDS011;6087;48.982;12.064;2023-02-11T07:01:40;39.53;;;23.20;;
12052;SDS011;6087;48.982;12.064;2023-02-11T07:04:07;39.07;;;22.00;;
12052;SDS011;6087;48.982;12.064;2023-02-11T07:06:34;40.67;;;23.43;;
12052;SDS011;6087;48.982;12.064;2023-02-11T07:09:02;39.13;;;21.83;;
12052;SDS011;6087;48.982;12.064;2023-02-11T07:11:29;34.50;;;19.70;;
12052;SDS011;6087;48.982;12.064;2023-02-11T07:14:02;41.53;;;23.83;;
12052;SDS011;6087;48.982;12.064;2023-02-11T07:16:32;38.13;;;23.00;;
12052;SDS011;6087;48.982;12.064;2023-02-11T07:18:59;36.47;;;20.97;;
12052;SDS011;6087;48.982;12.064;2023-02-11T07:21:26;33.17;;;22.53;;
12052;SDS011;6087;48.982;12.064;2023-02-11T07:23:53;38.37;;;20.10;;
12052;SDS011;6087;48.982;12.064;2023-02-11T07:26:21;36.93;;;21.20;;
12052;SDS011;6087;48.982;12.064;2023-02-11T07:28:56;39.77;;;22.00;;
12052;SDS011;6087;48.982;12.064;2023-02-11T07:31:26;39.70;;;22.43;;
12052;SDS011;6087;48.982;12.064;2023-02-11T07:33:54;41.97;;;23.13;;
12052;SDS011;6087;48.982;12.064;2023-02-11T07:36:23;36.23;;;21.87;;
12052;SDS011;6087;48.982;12.064;2023-02-11T07:38:51;41.87;;;23.47;;
12052;SDS011;6087;48.982;12.064;2023-02-11T07:41:19;38.80;;;22.47;;
12052;SDS011;6087;48.982;12.064;2023-02-11T07:43:47;38.40;;;21.37;;
12052;SDS011;6087;48.982;12.064;2023-02-11T07:46:15;37.07;;;21.63;;
12052;SDS011;6087;48.982;12.064;2023-02-11T07:48:45;41.67;;;23.30;;
12052;SDS011;6087;48.982;12.064;2023-02-11T07:51:13;35.37;;;22.17;;
12052;SDS011;6087;48.982;12.064;2023-02-11T07:53:41;38.17;;;20.40;;
12052;SDS011;6087;48.982;12.064;2023-02-11T07:56:08;33.50;;;19.53;;
12052;SDS011;6087;48.982;12.064;2023-02-11T07:58:36;37.87;;;22.67;;
12052;SDS011;6087;48.982;12.064;2023-02-11T08:01:06;35.20;;;19.40;;
12052;SDS011;6087;48.982;12.064;2023-02-11T08:03:35;35.00;;;19.77;;
12052;SDS011;6087;48.982;12.064;2023-02-11T08:06:05;37.00;;;21.53;;
12052;SDS011;6087;48.982;12.064;2023-02-11T08:08:33;36.97;;;22.07;;
12052;SDS011;6087;48.982;12.064;2023-02-11T08:11:04;34.10;;;20.83;;
12052;SDS011;6087;48.982;12.064;2023-02-11T08:13:32;34.07;;;20.57;;
12052;SDS011;6087;48.982;12.064;2023-02-11T08:15:59;36.27;;;20.13;;
12052;SDS011;6087;48.982;12.064;2023-02-11T08:18:26;37.00;;;20.70;;
12052;SDS011;6087;48.982;12.064;2023-02-11T08:20:53;34.90;;;21.97;;
12052;SDS011;6087;48.982;12.064;2023-02-11T08:23:22;34.50;;;22.33;;
12052;SDS011;6087;48.982;12.064;2023-02-11T08:25:48;39.37;;;21.40;;
12052;SDS011;6087;48.982;12.064;2023-02-11T08:28:15;37.20;;;22.63;;
12052;SDS011;6087;48.982;12.064;2023-02-11T08:30:42;37.77;;;20.47;;
12052;SDS011;6087;48.982;12.064;2023-02-11T08:33:09;33.47;;;20.00;;
12052;SDS011;6087;48.982;12.064;2023-02-11T08:35:36;40.60;;;23.27;;
12052;SDS011;6087;48.982;12.064;2023-02-11T08:38:04;34.57;;;21.70;;
12052;SDS011;6087;48.982;12.064;2023-02-11T08:40:33;38.50;;;20.93;;
12052;SDS011;6087;48.982;12.064;2023-02-11T08:43:06;39.03;;;22.93;;
12052;SDS011;6087;48.982;12.064;2023-02-11T08:45:35;33.60;;;20.33;;
12052;SDS011;6087;48.982;12.064;2023-02-11T08:48:03;35.53;;;21.30;;
12052;SDS011;6087;48.982;12.064;2023-02-11T08:50:33;30.87;;;19.07;;
12052;SDS011;6087;48.982;12.064;2023-02-11T08:53:03;32.83;;;21.87;;
12052;SDS011;6087;48.982;12.064;2023-02-11T08:55:31;36.23;;;22.13;;
12052;SDS011;6087;48.982;12.064;2023-02-11T08:58:02;37.63;;;21.77;;
12052;SDS011;6087;48.982;12.064;2023-02-11T09:00:33;37.60;;;21.20;;
12052;SDS011;6087;48.982;12.064;2023-02-11T09:03:00;33.70;;;21.70;;
12052;SDS011;6087;48.982;12.064;2023-02-11T09:05:29;35.17;;;21.67;;
12052;SDS011;6087;48.982;12.064;2023-02-11T09:08:00;30.30;;;20.17;;
12052;SDS011;6087;48.982;12.064;2023-02-11T09:10:27;32.47;;;19.23;;
12052;SDS011;6087;48.982;12.064;2023-02-11T09:12:55;32.83;;;20.23;;
12052;SDS011;6087;48.982;12.064;2023-02-11T09:15:24;30.47;;;16.83;;
12052;SDS011;6087;48.982;12.064;2023-02-11T09:17:51;31.97;;;18.23;;
12052;SDS011;6087;48.982;12.064;2023-02-11T09:20:19;32.33;;;17.97;;
12052;SDS011;6087;48.982;12.064;2023-02-11T09:22:46;33.13;;;20.40;;
12052;SDS011;6087;48.982;12.064;2023-02-11T09:25:13;29.77;;;17.80;;
12052;SDS011;6087;48.982;12.064;2023-02-11T09:27:41;32.47;;;19.77;;
12052;SDS011;6087;48.982;12.064;2023-02-11T09:30:09;33.17;;;20.90;;
12052;SDS011;6087;48.982;12.064;2023-02-11T09:32:38;35.97;;;20.07;;
12052;SDS011;6087;48.982;12.064;2023-02-11T09:35:05;35.13;;;22.10;;
12052;SDS011;6087;48.982;12.064;2023-02-11T09:37:33;33.43;;;20.77;;
12052;SDS011;6087;48.982;12.064;2023-02-11T09:40:01;31.33;;;20.47;;
12052;SDS011;6087;48.982;12.064;2023-02-11T09:42:36;32.83;;;20.33;;
12052;SDS011;6087;48.982;12.064;2023-02-11T09:45:12;32.57;;;19.57;;
12052;SDS011;6087;48.982;12.064;2023-02-11T09:47:47;35.03;;;21.33;;
12052;SDS011;6087;48.982;12.064;2023-02-11T09:50:18;35.87;;;20.67;;
12052;SDS011;6087;48.982;12.064;2023-02-11T09:52:51;28.90;;;18.70;;
12052;SDS011;6087;48.982;12.064;2023-02-11T09:55:24;31.70;;;19.43;;
12052;SDS011;6087;48.982;12.064;2023-02-11T09:57:54;37.03;;;20.63;;
12052;SDS011;6087;48.982;12.064;2023-02-11T10:00:24;32.77;;;19.40;;
12052;SDS011;6087;48.982;12.064;2023-02-11T10:02:59;31.07;;;19.87;;
12052;SDS011;6087;48.982;12.064;2023-02-11T10:05:55;32.67;;;19.37;;
12052;SDS011;6087;48.982;12.064;2023-02-11T10:08:35;33.03;;;19.93;;
12052;SDS011;6087;48.982;12.064;2023-02-11T10:11:15;35.40;;;21.30;;
12052;SDS011;6087;48.982;12.064;2023-02-11T10:13:49;35.83;;;21.03;;
12052;SDS011;6087;48.982;12.064;2023-02-11T10:16:29;37.00;;;20.97;;
12052;SDS011;6087;48.982;12.064;2023-02-11T10:19:18;43.47;;;24.37;;
12052;SDS011;6087;48.982;12.064;2023-02-11T10:22:01;35.23;;;20.93;;
12052;SDS011;6087;48.982;12.064;2023-02-11T10:24:35;41.47;;;22.20;;
12052;SDS011;6087;48.982;12.064;2023-02-11T10:27:07;38.27;;;19.87;;
12052;SDS011;6087;48.982;12.064;2023-02-11T10:29:43;34.30;;;20.33;;
12052;SDS011;6087;48.982;12.064;2023-02-11T10:32:17;33.03;;;19.63;;
12052;SDS011;6087;48.982;12.064;2023-02-11T10:34:54;35.50;;;19.40;;
12052;SDS011;6087;48.982;12.064;2023-02-11T10:37:25;30.47;;;19.87;;
12052;SDS011;6087;48.982;12.064;2023-02-11T10:39:53;30.10;;;19.23;;
12052;SDS011;6087;48.982;12.064;2023-02-11T10:42:20;34.90;;;20.47;;
12052;SDS011;6087;48.982;12.064;2023-02-11T10:44:54;36.23;;;21.17;;
12052;SDS011;6087;48.982;12.064;2023-02-11T10:47:26;32.30;;;19.80;;
12052;SDS011;6087;48.982;12.064;2023-02-11T10:49:58;30.20;;;19.67;;
12052;SDS011;6087;48.982;12.064;2023-02-11T10:52:28;36.60;;;21.33;;
12052;SDS011;6087;48.982;12.064;2023-02-11T10:55:00;31.80;;;20.20;;
12052;SDS011;6087;48.982;12.064;2023-02-11T10:57:33;38.17;;;20.97;;
12052;SDS011;6087;48.982;12.064;2023-02-11T11:00:04;40.47;;;21.90;;
12052;SDS011;6087;48.982;12.064;2023-02-11T11:02:50;32.33;;;20.57;;
12052;SDS011;6087;48.982;12.064;2023-02-11T11:05:22;33.97;;;20.07;;
12052;SDS011;6087;48.982;12.064;2023-02-11T11:07:56;35.30;;;20.37;;
12052;SDS011;6087;48.982;12.064;2023-02-11T11:10:26;34.27;;;20.73;;
12052;SDS011;6087;48.982;12.064;2023-02-11T11:13:09;31.50;;;20.03;;
12052;SDS011;6087;48.982;12.064;2023-02-11T11:16:15;36.10;;;20.20;;
12052;SDS011;6087;48.982;12.064;2023-02-11T11:18:44;33.97;;;19.83;;
12052;SDS011;6087;48.982;12.064;2023-02-11T11:21:15;35.90;;;21.33;;
12052;SDS011;6087;48.982;12.064;2023-02-11T11:23:48;32.57;;;20.33;;
12052;SDS011;6087;48.982;12.064;2023-02-11T11:26:18;36.30;;;22.27;;
12052;SDS011;6087;48.982;12.064;2023-02-11T11:28:51;40.13;;;20.80;;
12052;SDS011;6087;48.982;12.064;2023-02-11T11:31:22;35.90;;;20.90;;
12052;SDS011;6087;48.982;12.064;2023-02-11T11:33:52;27.60;;;19.97;;
12052;SDS011;6087;48.982;12.064;2023-02-11T11:36:30;33.93;;;20.27;;
12052;SDS011;6087;48.982;12.064;2023-02-11T11:39:00;34.57;;;21.33;;
12052;SDS011;6087;48.982;12.064;2023-02-11T11:41:30;31.13;;;19.50;;
12052;SDS011;6087;48.982;12.064;2023-02-11T11:44:04;30.47;;;19.43;;
12052;SDS011;6087;48.982;12.064;2023-02-11T11:46:54;33.20;;;18.10;;
12052;SDS011;6087;48.982;12.064;2023-02-11T11:49:42;30.93;;;19.53;;
12052;SDS011;6087;48.982;12.064;2023-02-11T11:52:17;32.43;;;20.43;;
12052;SDS011;6087;48.982;12.064;2023-02-11T11:54:54;36.20;;;19.70;;
12052;SDS011;6087;48.982;12.064;2023-02-11T11:57:31;30.13;;;19.83;;
12052;SDS011;6087;48.982;12.064;2023-02-11T12:00:03;34.20;;;20.17;;
12052;SDS011;6087;48.982;12.064;2023-02-11T12:05:41;32.73;;;20.87;;
12052;SDS011;6087;48.982;12.064;2023-02-11T12:08:15;31.27;;;19.07;;
12052;SDS011;6087;48.982;12.064;2023-02-11T12:10:54;35.47;;;21.03;;
12052;SDS011;6087;48.982;12.064;2023-02-11T12:13:42;30.63;;;19.83;;
12052;SDS011;6087;48.982;12.064;2023-02-11T12:16:24;31.97;;;20.20;;
12052;SDS011;6087;48.982;12.064;2023-02-11T12:19:17;33.17;;;19.93;;
12052;SDS011;6087;48.982;12.064;2023-02-11T12:22:04;33.37;;;19.63;;
12052;SDS011;6087;48.982;12.064;2023-02-11T12:27:44;29.00;;;18.43;;
12052;SDS011;6087;48.982;12.064;2023-02-11T12:30:27;30.30;;;18.83;;
12052;SDS011;6087;48.982;12.064;2023-02-11T12:33:05;30.50;;;17.87;;
12052;SDS011;6087;48.982;12.064;2023-02-11T12:35:42;29.63;;;17.70;;
12052;SDS011;6087;48.982;12.064;2023-02-11T12:41:17;31.73;;;20.43;;
12052;SDS011;6087;48.982;12.064;2023-02-11T12:44:08;31.90;;;19.80;;
12052;SDS011;6087;48.982;12.064;2023-02-11T12:46:55;28.90;;;19.07;;
12052;SDS011;6087;48.982;12.064;2023-02-11T12:49:44;26.30;;;18.50;;
12052;SDS011;6087;48.982;12.064;2023-02-11T12:52:40;27.70;;;18.30;;
12052;SDS011;6087;48.982;12.064;2023-02-11T12:55:22;27.40;;;18.13;;
12052;SDS011;6087;48.982;12.064;2023-02-11T12:57:54;23.73;;;17.13;;
12052;SDS011;6087;48.982;12.064;2023-02-11T13:00:24;27.23;;;18.27;;
12052;SDS011;6087;48.982;12.064;2023-02-11T13:02:58;28.30;;;18.17;;
12052;SDS011;6087;48.982;12.064;2023-02-11T13:05:32;31.37;;;18.73;;
12052;SDS011;6087;48.982;12.064;2023-02-11T13:08:03;29.30;;;18.77;;
12052;SDS011;6087;48.982;12.064;2023-02-11T13:10:36;26.33;;;18.87;;
12052;SDS011;6087;48.982;12.064;2023-02-11T13:13:12;27.20;;;18.17;;
12052;SDS011;6087;48.982;12.064;2023-02-11T13:15:45;31.87;;;20.23;;
12052;SDS011;6087;48.982;12.064;2023-02-11T13:18:18;29.13;;;19.63;;
12052;SDS011;6087;48.982;12.064;2023-02-11T13:21:06;30.03;;;18.90;;
12052;SDS011;6087;48.982;12.064;2023-02-11T13:23:49;32.87;;;18.97;;
12052;SDS011;6087;48.982;12.064;2023-02-11T13:26:25;27.97;;;18.90;;
12052;SDS011;6087;48.982;12.064;2023-02-11T13:29:04;29.13;;;19.30;;
12052;SDS011;6087;48.982;12.064;2023-02-11T13:31:41;26.00;;;18.73;;
12052;SDS011;6087;48.982;12.064;2023-02-11T13:34:25;27.10;;;19.00;;
12052;SDS011;6087;48.982;12.064;2023-02-11T13:37:18;31.60;;;18.10;;
12052;SDS011;6087;48.982;12.064;2023-02-11T13:39:57;28.13;;;18.63;;
12052;SDS011;6087;48.982;12.064;2023-02-11T13:42:26;32.37;;;19.57;;
12052;SDS011;6087;48.982;12.064;2023-02-11T13:44:56;30.77;;;18.87;;
12052;SDS011;6087;48.982;12.064;2023-02-11T13:47:28;30.53;;;18.83;;
12052;SDS011;6087;48.982;12.064;2023-02-11T13:49:57;32.77;;;19.27;;
12052;SDS011;6087;48.982;12.064;2023-02-11T13:52:27;26.17;;;18.13;;
12052;SDS011;6087;48.982;12.064;2023-02-11T13:54:58;31.17;;;22.03;;
12052;SDS011;6087;48.982;12.064;2023-02-11T13:57:37;35.47;;;24.40;;
12052;SDS011;6087;48.982;12.064;2023-02-11T14:00:41;39.43;;;25.93;;
12052;SDS011;6087;48.982;12.064;2023-02-11T14:06:23;43.67;;;26.93;;
12052;SDS011;6087;48.982;12.064;2023-02-11T14:12:23;40.87;;;25.30;;
12052;SDS011;6087;48.982;12.064;2023-02-11T14:15:09;38.40;;;26.20;;
12052;SDS011;6087;48.982;12.064;2023-02-11T14:21:00;37.27;;;25.07;;
12052;SDS011;6087;48.982;12.064;2023-02-11T14:23:37;44.07;;;26.97;;
12052;SDS011;6087;48.982;12.064;2023-02-11T14:26:15;39.47;;;26.53;;
12052;SDS011;6087;48.982;12.064;2023-02-11T14:28:58;43.80;;;27.10;;
12052;SDS011;6087;48.982;12.064;2023-02-11T14:31:32;45.20;;;26.87;;
12052;SDS011;6087;48.982;12.064;2023-02-11T14:34:17;39.80;;;26.50;;
12052;SDS011;6087;48.982;12.064;2023-02-11T14:37:17;45.87;;;28.93;;
12052;SDS011;6087;48.982;12.064;2023-02-11T14:42:42;44.83;;;26.80;;
12052;SDS011;6087;48.982;12.064;2023-02-11T14:45:10;43.40;;;27.30;;
12052;SDS011;6087;48.982;12.064;2023-02-11T14:47:46;41.03;;;26.53;;
12052;SDS011;6087;48.982;12.064;2023-02-11T14:50:18;40.77;;;27.53;;
12052;SDS011;6087;48.982;12.064;2023-02-11T14:52:50;41.57;;;26.13;;
12052;SDS011;6087;48.982;12.064;2023-02-11T14:55:23;38.40;;;26.50;;
12052;SDS011;6087;48.982;12.064;2023-02-11T14:58:05;43.67;;;27.17;;
12052;SDS011;6087;48.982;12.064;2023-02-11T15:00:47;42.53;;;27.63;;
12052;SDS011;6087;48.982;12.064;2023-02-11T15:03:30;44.63;;;27.73;;
12052;SDS011;6087;48.982;12.064;2023-02-11T15:06:01;43.07;;;27.53;;
12052;SDS011;6087;48.982;12.064;2023-02-11T15:08:31;39.47;;;26.83;;
12052;SDS011;6087;48.982;12.064;2023-02-11T15:11:07;41.57;;;26.50;;
12052;SDS011;6087;48.982;12.064;2023-02-11T15:13:37;39.23;;;27.37;;
12052;SDS011;6087;48.982;12.064;2023-02-11T15:16:11;41.37;;;28.17;;
12052;SDS011;6087;48.982;12.064;2023-02-11T15:18:44;38.97;;;26.57;;